createdAt,value
2022-10-10T00:01:16.862Z,2.05
2022-10-10T00:03:45.224Z,2.08
2022-10-10T00:06:15.492Z,2.05
2022-10-10T00:08:43.977Z,2.83
2022-10-10T00:11:12.713Z,2.00
2022-10-10T00:13:41.352Z,2.47
2022-10-10T00:16:09.422Z,1.95
2022-10-10T00:18:37.611Z,2.30
2022-10-10T00:21:05.961Z,2.03
2022-10-10T00:23:35.428Z,2.35
2022-10-10T00:26:08.598Z,2.10
2022-10-10T00:28:38.346Z,2.20
2022-10-10T00:31:06.753Z,1.83
2022-10-10T00:33:34.559Z,1.90
2022-10-10T00:36:02.424Z,2.13
2022-10-10T00:38:30.267Z,1.73
2022-10-10T00:40:59.768Z,1.92
2022-10-10T00:43:28.490Z,3.00
2022-10-10T00:45:56.506Z,2.22
2022-10-10T00:48:26.225Z,2.47
2022-10-10T00:50:58.196Z,1.98
2022-10-10T00:53:29.676Z,3.35
2022-10-10T00:56:00.576Z,2.60
2022-10-10T00:58:28.468Z,2.40
2022-10-10T01:00:56.625Z,2.13
2022-10-10T01:03:24.888Z,2.35
2022-10-10T01:05:53.072Z,2.30
2022-10-10T01:08:22.049Z,2.38
2022-10-10T01:11:04.924Z,2.53
2022-10-10T01:13:40.406Z,2.00
2022-10-10T01:16:15.107Z,1.98
2022-10-10T01:18:55.003Z,2.65
2022-10-10T01:21:30.900Z,2.08
2022-10-10T01:24:21.774Z,2.10
2022-10-10T01:27:30.986Z,2.15
2022-10-10T01:30:04.987Z,2.20
2022-10-10T01:35:32.264Z,1.80
2022-10-10T01:38:08.979Z,2.22
2022-10-10T01:40:45.130Z,1.95
2022-10-10T01:43:13.878Z,2.10
2022-10-10T01:45:46.685Z,2.20
2022-10-10T01:48:15.192Z,2.13
2022-10-10T01:50:58.505Z,1.75
2022-10-10T01:53:36.955Z,2.33
2022-10-10T01:56:11.076Z,2.20
2022-10-10T01:58:58.124Z,1.98
2022-10-10T02:01:35.611Z,2.00
2022-10-10T02:04:10.482Z,2.33
2022-10-10T02:06:43.061Z,2.28
2022-10-10T02:09:16.359Z,2.20
2022-10-10T02:14:16.991Z,2.13
2022-10-10T02:16:48.629Z,2.20
2022-10-10T02:19:20.798Z,2.40
2022-10-10T02:21:49.818Z,1.70
2022-10-10T02:24:20.786Z,2.10
2022-10-10T02:26:53.538Z,2.38
2022-10-10T02:29:26.311Z,2.33
2022-10-10T02:32:01.214Z,2.72
2022-10-10T02:34:33.665Z,2.40
2022-10-10T02:37:05.785Z,2.67
2022-10-10T02:39:37.494Z,2.45
2022-10-10T02:42:07.859Z,2.10
2022-10-10T02:44:36.974Z,2.33
2022-10-10T02:47:06.762Z,2.45
2022-10-10T02:49:36.098Z,2.13
2022-10-10T02:52:04.900Z,2.10
2022-10-10T02:54:33.040Z,2.20
2022-10-10T02:57:00.888Z,2.22
2022-10-10T02:59:28.715Z,2.55
2022-10-10T03:01:56.528Z,2.30
2022-10-10T03:04:25.733Z,1.90
2022-10-10T03:06:53.796Z,2.63
2022-10-10T03:09:21.643Z,2.28
2022-10-10T03:11:49.471Z,2.13
2022-10-10T03:14:17.352Z,2.72
2022-10-10T03:16:45.134Z,2.20
2022-10-10T03:19:13.223Z,2.40
2022-10-10T03:21:42.380Z,2.63
2022-10-10T03:24:10.282Z,2.05
2022-10-10T03:26:38.089Z,2.25
2022-10-10T03:29:06.242Z,2.10
2022-10-10T03:31:34.056Z,1.90
2022-10-10T03:34:01.851Z,1.85
2022-10-10T03:36:30.860Z,2.22
2022-10-10T03:39:00.051Z,2.00
2022-10-10T03:41:28.190Z,2.33
2022-10-10T03:43:56.194Z,2.40
2022-10-10T03:46:24.053Z,2.63
2022-10-10T03:48:51.951Z,2.15
2022-10-10T03:51:20.163Z,2.03
2022-10-10T03:53:48.011Z,2.20
2022-10-10T03:56:17.203Z,2.35
2022-10-10T03:58:45.073Z,3.08
2022-10-10T04:01:13.101Z,2.28
2022-10-10T04:03:41.107Z,2.30
2022-10-10T04:06:09.479Z,2.50
2022-10-10T04:08:37.300Z,2.50
2022-10-10T04:11:05.218Z,2.75
2022-10-10T04:13:34.386Z,2.63
2022-10-10T04:16:02.212Z,2.40
2022-10-10T04:18:29.990Z,1.92
2022-10-10T04:20:57.807Z,2.33
2022-10-10T04:23:25.615Z,2.25
2022-10-10T04:25:54.086Z,2.20
2022-10-10T04:28:21.942Z,2.83
2022-10-10T04:30:51.152Z,2.78
2022-10-10T04:33:19.167Z,2.60
2022-10-10T04:35:50.068Z,2.70
2022-10-10T04:38:19.778Z,2.97
2022-10-10T04:40:49.413Z,2.60
2022-10-10T04:43:17.218Z,2.35
2022-10-10T04:45:45.060Z,2.17
2022-10-10T04:48:14.470Z,2.58
2022-10-10T04:50:42.327Z,2.55
2022-10-10T04:53:10.305Z,2.53
2022-10-10T04:55:38.147Z,2.80
2022-10-10T04:58:05.958Z,2.90
2022-10-10T05:00:33.806Z,3.10
2022-10-10T05:03:02.021Z,2.55
2022-10-10T05:05:31.559Z,2.40
2022-10-10T05:07:59.361Z,2.40
2022-10-10T05:10:27.495Z,3.13
2022-10-10T05:12:55.451Z,2.80
2022-10-10T05:15:23.283Z,2.28
2022-10-10T05:17:51.206Z,2.88
2022-10-10T05:20:19.552Z,3.08
2022-10-10T05:22:48.887Z,2.90
2022-10-10T05:25:16.988Z,2.72
2022-10-10T05:27:44.814Z,2.83
2022-10-10T05:30:13.733Z,2.88
2022-10-10T05:32:41.605Z,2.85
2022-10-10T05:35:10.361Z,3.55
2022-10-10T05:37:38.210Z,2.60
2022-10-10T05:40:08.880Z,2.70
2022-10-10T05:42:36.664Z,2.90
2022-10-10T05:45:04.703Z,3.00
2022-10-10T05:47:32.516Z,2.80
2022-10-10T05:50:00.379Z,2.85
2022-10-10T05:52:29.587Z,3.00
2022-10-10T05:54:57.375Z,3.25
2022-10-10T05:57:26.677Z,2.80
2022-10-10T05:59:54.939Z,2.90
2022-10-10T06:02:22.782Z,2.92
2022-10-10T06:04:50.615Z,3.38
2022-10-10T06:07:18.475Z,3.05
2022-10-10T06:09:46.447Z,3.63
2022-10-10T06:12:14.343Z,2.63
2022-10-10T06:14:43.762Z,2.78
2022-10-10T06:17:11.589Z,3.00
2022-10-10T06:19:39.403Z,3.45
2022-10-10T06:22:07.233Z,3.17
2022-10-10T06:24:35.230Z,3.08
2022-10-10T06:27:03.060Z,2.90
2022-10-10T06:29:30.869Z,3.03
2022-10-10T06:32:00.055Z,2.75
2022-10-10T06:34:28.045Z,3.42
2022-10-10T06:36:55.881Z,3.40
2022-10-10T06:39:23.711Z,4.07
2022-10-10T06:41:51.508Z,3.25
2022-10-10T06:44:20.318Z,3.63
2022-10-10T06:46:48.180Z,2.92
2022-10-10T06:49:17.385Z,3.35
2022-10-10T06:51:45.174Z,2.78
2022-10-10T06:54:13.028Z,3.13
2022-10-10T06:56:40.829Z,3.03
2022-10-10T06:59:08.716Z,3.30
2022-10-10T07:01:36.642Z,2.90
2022-10-10T07:04:05.356Z,3.60
2022-10-10T07:06:35.137Z,3.20
2022-10-10T07:09:03.289Z,2.80
2022-10-10T07:11:31.479Z,2.72
2022-10-10T07:13:59.771Z,2.65
2022-10-10T07:16:27.859Z,2.80
2022-10-10T07:18:55.756Z,2.80
2022-10-10T07:21:23.593Z,2.63
2022-10-10T07:23:52.812Z,3.17
2022-10-10T07:26:22.341Z,2.63
2022-10-10T07:28:50.580Z,2.88
2022-10-10T07:31:18.433Z,3.00
2022-10-10T07:33:50.502Z,2.83
2022-10-10T07:36:19.709Z,2.73
2022-10-10T07:38:52.931Z,3.22
2022-10-10T07:41:21.563Z,3.30
2022-10-10T07:43:49.765Z,2.35
2022-10-10T07:46:20.420Z,3.03
2022-10-10T07:48:49.169Z,2.67
2022-10-10T07:51:17.736Z,2.50
2022-10-10T07:53:45.562Z,2.65
2022-10-10T07:56:14.729Z,3.20
2022-10-10T07:58:42.752Z,2.67
2022-10-10T08:01:12.411Z,3.33
2022-10-10T08:03:40.662Z,2.63
2022-10-10T08:06:10.698Z,2.85
2022-10-10T08:08:48.564Z,2.92
2022-10-10T08:11:22.341Z,2.92
2022-10-10T08:13:51.278Z,2.83
2022-10-10T08:16:19.735Z,2.85
2022-10-10T08:18:47.661Z,3.25
2022-10-10T08:21:18.634Z,3.00
2022-10-10T08:23:47.305Z,2.85
2022-10-10T08:26:17.694Z,2.72
2022-10-10T08:28:48.692Z,2.70
2022-10-10T08:31:19.048Z,2.92
2022-10-10T08:33:48.705Z,2.30
2022-10-10T08:36:19.421Z,2.70
2022-10-10T08:38:47.761Z,2.53
2022-10-10T08:41:25.496Z,2.42
2022-10-10T08:43:57.769Z,2.83
2022-10-10T08:46:36.420Z,2.85
2022-10-10T08:49:14.329Z,2.55
2022-10-10T08:51:48.081Z,2.20
2022-10-10T08:54:18.643Z,2.80
2022-10-10T08:56:47.146Z,2.33
2022-10-10T08:59:24.197Z,2.50
2022-10-10T09:02:17.616Z,2.58
2022-10-10T09:04:45.123Z,2.75
2022-10-10T09:07:27.652Z,2.88
2022-10-10T09:10:04.347Z,2.30
2022-10-10T09:12:43.114Z,2.70
2022-10-10T09:15:20.301Z,2.55
2022-10-10T09:17:55.191Z,2.22
2022-10-10T09:20:36.244Z,2.22
2022-10-10T09:23:09.764Z,2.33
2022-10-10T09:25:45.142Z,2.72
2022-10-10T09:28:17.733Z,2.30
2022-10-10T09:30:52.067Z,2.23
2022-10-10T09:33:28.137Z,2.22
2022-10-10T09:35:59.765Z,2.15
2022-10-10T09:38:40.019Z,2.30
2022-10-10T09:41:16.061Z,2.72
2022-10-10T09:43:44.229Z,2.30
2022-10-10T09:46:13.456Z,2.08
2022-10-10T09:48:42.843Z,2.25
2022-10-10T09:51:15.522Z,2.38
2022-10-10T09:53:44.262Z,2.17
2022-10-10T09:56:19.437Z,2.05
2022-10-10T09:58:49.475Z,2.17
2022-10-10T10:01:21.950Z,2.20
2022-10-10T10:04:23.486Z,2.37
2022-10-10T10:07:06.351Z,1.90
2022-10-10T10:09:34.752Z,2.50
2022-10-10T10:12:03.052Z,2.45
2022-10-10T10:14:36.107Z,2.33
2022-10-10T10:17:09.979Z,2.50
2022-10-10T10:19:39.886Z,2.20
2022-10-10T10:22:28.173Z,2.20
2022-10-10T10:24:56.252Z,2.75
2022-10-10T10:27:26.044Z,2.85
2022-10-10T10:29:56.047Z,2.60
2022-10-10T10:32:40.681Z,2.25
2022-10-10T10:35:18.163Z,2.33
2022-10-10T10:37:59.417Z,2.10
2022-10-10T10:40:34.392Z,2.22
2022-10-10T10:43:20.086Z,2.38
2022-10-10T10:45:59.592Z,2.20
2022-10-10T10:48:34.916Z,2.30
2022-10-10T10:51:14.316Z,2.22
2022-10-10T10:53:50.321Z,1.98
2022-10-10T10:56:27.243Z,2.00
2022-10-10T10:59:39.071Z,2.20
2022-10-10T11:02:06.202Z,2.30
2022-10-10T11:05:20.938Z,2.83
2022-10-10T11:08:02.876Z,2.50
2022-10-10T11:10:39.859Z,2.25
2022-10-10T11:13:20.538Z,2.55
2022-10-10T11:16:06.144Z,2.33
2022-10-10T11:18:39.865Z,2.78
2022-10-10T11:21:12.445Z,2.40
2022-10-10T11:23:44.599Z,2.17
2022-10-10T11:26:19.302Z,2.03
2022-10-10T11:28:52.324Z,2.33
2022-10-10T11:31:25.032Z,2.30
2022-10-10T11:33:57.670Z,2.43
2022-10-10T11:36:31.105Z,2.85
2022-10-10T11:39:05.409Z,2.42
2022-10-10T11:41:36.534Z,2.47
2022-10-10T11:44:10.113Z,2.30
2022-10-10T11:46:43.002Z,2.10
2022-10-10T11:49:21.041Z,2.30
2022-10-10T11:52:31.815Z,2.22
2022-10-10T11:54:58.792Z,2.30
2022-10-10T11:57:32.720Z,2.83
2022-10-10T12:00:05.647Z,2.50
2022-10-10T12:02:36.292Z,2.47
2022-10-10T12:05:06.098Z,2.50
2022-10-10T12:07:42.413Z,2.60
2022-10-10T12:10:18.526Z,2.67
2022-10-10T12:12:49.833Z,2.45
2022-10-10T12:15:28.981Z,2.70
2022-10-10T12:17:57.963Z,2.45
2022-10-10T12:20:34.999Z,2.53
2022-10-10T12:23:22.369Z,3.03
2022-10-10T12:25:50.183Z,2.45
2022-10-10T12:28:27.529Z,2.35
2022-10-10T12:31:20.719Z,2.83
2022-10-10T12:34:04.631Z,2.33
2022-10-10T12:37:11.023Z,2.60
2022-10-10T12:40:29.247Z,2.30
2022-10-10T12:43:23.520Z,2.35
2022-10-10T12:46:19.439Z,2.90
2022-10-10T12:49:15.010Z,2.45
2022-10-10T12:51:44.195Z,2.22
2022-10-10T12:54:25.472Z,2.33
2022-10-10T12:57:07.688Z,2.30
2022-10-10T12:59:37.878Z,2.40
2022-10-10T13:02:12.071Z,2.72
2022-10-10T13:04:43.760Z,2.42
2022-10-10T13:07:16.925Z,2.63
2022-10-10T13:09:48.041Z,2.25
2022-10-10T13:12:28.616Z,2.65
2022-10-10T13:14:57.769Z,3.08
2022-10-10T13:17:28.843Z,2.50
2022-10-10T13:20:02.301Z,2.95
2022-10-10T13:22:32.151Z,2.42
2022-10-10T13:25:01.582Z,3.20
2022-10-10T13:27:34.946Z,2.80
2022-10-10T13:32:34.352Z,2.50
2022-10-10T13:35:05.457Z,2.53
2022-10-10T13:37:33.779Z,2.53
2022-10-10T13:40:02.591Z,2.40
2022-10-10T13:42:35.309Z,3.15
2022-10-10T13:45:29.418Z,2.50
2022-10-10T13:48:12.843Z,2.40
2022-10-10T13:50:56.753Z,2.55
2022-10-10T13:53:32.269Z,2.85
2022-10-10T13:56:05.757Z,2.90
2022-10-10T13:58:42.777Z,2.70
2022-10-10T14:01:25.817Z,3.28
2022-10-10T14:03:57.150Z,3.13
2022-10-10T14:06:27.698Z,2.70
2022-10-10T14:08:57.957Z,2.50
2022-10-10T14:11:29.040Z,3.10
2022-10-10T14:14:05.615Z,2.35
2022-10-10T14:16:33.530Z,2.80
2022-10-10T14:19:01.450Z,3.00
2022-10-10T14:21:29.268Z,2.50
2022-10-10T14:23:57.174Z,2.83
2022-10-10T14:26:25.027Z,2.67
2022-10-10T14:28:53.026Z,2.80
2022-10-10T14:31:22.282Z,2.53
2022-10-10T14:33:50.171Z,4.80
2022-10-10T14:36:17.999Z,3.17
2022-10-10T14:38:46.050Z,2.60
2022-10-10T14:41:14.196Z,2.78
2022-10-10T14:43:45.754Z,2.70
2022-10-10T14:46:18.899Z,2.90
2022-10-10T14:48:48.434Z,3.08
2022-10-10T14:51:34.942Z,3.10
2022-10-10T14:54:12.013Z,2.50
2022-10-10T14:57:09.440Z,3.00
2022-10-10T14:59:46.480Z,2.80
2022-10-10T15:02:19.033Z,2.28
2022-10-10T15:04:48.529Z,3.42
2022-10-10T15:07:16.949Z,2.53
2022-10-10T15:10:19.222Z,2.63
2022-10-10T15:12:33.611Z,2.90
2022-10-10T15:15:01.473Z,2.50
2022-10-10T15:17:30.494Z,2.65
2022-10-10T15:19:59.870Z,2.78
2022-10-10T15:22:28.674Z,2.65
2022-10-10T15:24:56.543Z,2.50
2022-10-10T15:27:25.081Z,2.53
2022-10-10T15:29:52.915Z,2.92
2022-10-10T15:32:21.018Z,2.70
2022-10-10T15:34:49.016Z,3.03
2022-10-10T15:37:19.073Z,3.10
2022-10-10T15:39:48.061Z,3.22
2022-10-10T15:42:22.166Z,3.00
2022-10-10T15:44:51.690Z,3.30
2022-10-10T15:47:20.576Z,2.80
2022-10-10T15:49:48.722Z,2.70
2022-10-10T15:52:22.922Z,2.70
2022-10-10T15:54:51.002Z,2.63
2022-10-10T15:57:19.216Z,2.92
2022-10-10T15:59:47.708Z,3.22
2022-10-10T16:02:16.092Z,2.60
2022-10-10T16:04:44.580Z,2.88
2022-10-10T16:07:25.805Z,3.10
2022-10-10T16:09:58.867Z,2.78
2022-10-10T16:12:26.798Z,2.72
2022-10-10T16:14:54.619Z,2.75
2022-10-10T16:17:23.804Z,3.30
2022-10-10T16:19:52.330Z,3.15
2022-10-10T16:22:20.533Z,3.45
2022-10-10T16:25:17.284Z,3.60
2022-10-10T16:27:38.612Z,3.58
2022-10-10T16:30:07.665Z,3.17
2022-10-10T16:32:41.058Z,3.55
2022-10-10T16:35:10.652Z,3.97
2022-10-10T16:37:38.623Z,3.22
2022-10-10T16:40:07.743Z,3.10
2022-10-10T16:42:35.991Z,3.17
2022-10-10T16:45:06.250Z,3.42
2022-10-10T16:47:34.078Z,2.90
2022-10-10T16:50:01.972Z,4.03
2022-10-10T16:52:29.807Z,3.25
2022-10-10T16:54:57.840Z,3.30
2022-10-10T16:57:25.654Z,3.30
2022-10-10T16:59:53.479Z,3.25
2022-10-10T17:02:24.520Z,3.20
2022-10-10T17:04:53.266Z,3.13
2022-10-10T17:07:21.136Z,3.22
2022-10-10T17:09:48.964Z,3.17
2022-10-10T17:12:16.876Z,3.50
2022-10-10T17:14:44.694Z,2.90
2022-10-10T17:17:13.594Z,3.47
2022-10-10T17:19:43.150Z,4.15
2022-10-10T17:22:10.991Z,3.67
2022-10-10T17:24:38.807Z,3.85
2022-10-10T17:27:06.657Z,4.03
2022-10-10T17:29:34.453Z,4.28
2022-10-10T17:32:06.327Z,3.63
2022-10-10T17:34:35.091Z,3.78
2022-10-10T17:37:05.037Z,3.90
2022-10-10T17:39:32.918Z,3.85
2022-10-10T17:42:01.020Z,3.78
2022-10-10T17:44:28.967Z,3.63
2022-10-10T17:46:56.950Z,4.00
2022-10-10T17:49:24.890Z,4.30
2022-10-10T17:51:52.956Z,4.50
2022-10-10T17:54:22.139Z,4.95
2022-10-10T17:56:49.892Z,5.13
2022-10-10T17:59:17.766Z,4.38
2022-10-10T18:01:45.581Z,4.72
2022-10-10T18:04:16.348Z,4.93
2022-10-10T18:06:44.273Z,4.70
2022-10-10T18:09:12.079Z,4.70
2022-10-10T18:11:41.545Z,5.05
2022-10-10T18:14:09.375Z,4.32
2022-10-10T18:16:37.226Z,5.03
2022-10-10T18:19:07.292Z,5.05
2022-10-10T18:21:35.918Z,4.95
2022-10-10T18:24:03.860Z,5.40
2022-10-10T18:26:31.997Z,5.30
2022-10-10T18:29:01.372Z,4.53
2022-10-10T18:31:31.074Z,4.78
2022-10-10T18:33:58.928Z,5.20
2022-10-10T18:36:29.746Z,5.25
2022-10-10T18:39:00.166Z,4.43
2022-10-10T18:41:33.840Z,4.15
2022-10-10T18:44:04.655Z,4.80
2022-10-10T18:46:33.283Z,4.32
2022-10-10T18:49:01.818Z,4.32
2022-10-10T18:51:30.574Z,4.13
2022-10-10T18:54:02.169Z,4.43
2022-10-10T18:56:31.924Z,4.43
2022-10-10T18:59:02.175Z,4.60
2022-10-10T19:01:35.159Z,4.80
2022-10-10T19:04:04.233Z,4.50
2022-10-10T19:06:32.058Z,4.25
2022-10-10T19:09:01.585Z,4.50
2022-10-10T19:11:31.324Z,4.95
2022-10-10T19:14:00.610Z,5.15
2022-10-10T19:16:29.125Z,4.82
2022-10-10T19:18:59.899Z,4.50
2022-10-10T19:21:28.930Z,5.25
2022-10-10T19:23:57.201Z,4.75
2022-10-10T19:26:25.012Z,4.55
2022-10-10T19:28:52.918Z,4.93
2022-10-10T19:31:22.424Z,4.90
2022-10-10T19:33:53.223Z,4.03
2022-10-10T19:36:22.406Z,4.53
2022-10-10T19:38:50.555Z,4.65
2022-10-10T19:41:18.599Z,4.10
2022-10-10T19:43:49.970Z,4.78
2022-10-10T19:46:19.501Z,4.22
2022-10-10T19:48:47.279Z,4.38
2022-10-10T19:51:16.576Z,4.57
2022-10-10T19:53:46.671Z,4.75
2022-10-10T19:56:16.465Z,4.18
2022-10-10T19:58:44.644Z,4.28
2022-10-10T20:01:14.800Z,4.25
2022-10-10T20:03:43.071Z,3.75
2022-10-10T20:06:11.340Z,4.05
2022-10-10T20:08:39.572Z,3.50
2022-10-10T20:11:09.091Z,4.05
2022-10-10T20:13:37.285Z,3.90
2022-10-10T20:16:09.579Z,4.22
2022-10-10T20:18:39.533Z,4.15
2022-10-10T20:21:15.521Z,3.53
2022-10-10T20:23:44.792Z,3.83
2022-10-10T20:26:16.667Z,4.40
2022-10-10T20:28:45.349Z,5.30
2022-10-10T20:31:19.918Z,4.65
2022-10-10T20:33:48.740Z,5.07
2022-10-10T20:36:17.120Z,4.60
2022-10-10T20:38:45.164Z,4.70
2022-10-10T20:41:14.351Z,4.10
2022-10-10T20:43:42.214Z,4.47
2022-10-10T20:46:13.575Z,3.78
2022-10-10T20:48:42.604Z,3.45
2022-10-10T20:51:12.231Z,3.75
2022-10-10T20:53:42.393Z,3.45
2022-10-10T20:56:12.312Z,3.03
2022-10-10T20:58:41.836Z,3.75
2022-10-10T21:01:12.073Z,3.97
2022-10-10T21:03:40.641Z,3.30
2022-10-10T21:06:11.395Z,3.50
2022-10-10T21:08:39.731Z,2.90
2022-10-10T21:11:09.709Z,3.22
2022-10-10T21:13:40.400Z,2.90
2022-10-10T21:16:12.864Z,3.40
2022-10-10T21:18:41.042Z,2.67
2022-10-10T21:21:09.397Z,3.20
2022-10-10T21:23:38.870Z,3.00
2022-10-10T21:26:08.183Z,2.90
2022-10-10T21:28:36.318Z,3.05
2022-10-10T21:31:05.267Z,3.08
2022-10-10T21:33:35.561Z,2.78
2022-10-10T21:36:03.810Z,2.72
2022-10-10T21:38:32.320Z,3.00
2022-10-10T21:41:05.980Z,2.80
2022-10-10T21:43:34.398Z,2.80
2022-10-10T21:46:06.232Z,2.83
2022-10-10T21:48:36.060Z,2.90
2022-10-10T21:51:04.067Z,2.83
2022-10-10T21:53:32.250Z,3.30
2022-10-10T21:56:00.100Z,3.13
2022-10-10T21:58:27.957Z,3.05
2022-10-10T22:00:55.851Z,3.60
2022-10-10T22:03:23.701Z,3.40
2022-10-10T22:05:52.857Z,3.33
2022-10-10T22:08:20.662Z,3.90
2022-10-10T22:10:48.467Z,3.58
2022-10-10T22:13:16.284Z,3.78
2022-10-10T22:15:44.434Z,3.13
2022-10-10T22:18:12.234Z,3.90
2022-10-10T22:20:40.115Z,3.97
2022-10-10T22:23:09.341Z,4.15
2022-10-10T22:25:37.249Z,3.92
2022-10-10T22:28:06.353Z,4.10
2022-10-10T22:30:34.408Z,4.53
2022-10-10T22:33:02.297Z,4.75
2022-10-10T22:35:30.092Z,4.20
2022-10-10T22:37:57.905Z,4.43
2022-10-10T22:40:27.279Z,4.90
2022-10-10T22:42:55.425Z,4.07
2022-10-10T22:45:23.973Z,4.63
2022-10-10T22:47:51.874Z,4.43
2022-10-10T22:50:19.940Z,3.58
2022-10-10T22:52:47.860Z,3.72
2022-10-10T22:55:18.639Z,3.72
2022-10-10T22:57:48.248Z,3.55
2022-10-10T23:00:17.263Z,3.67
2022-10-10T23:02:45.230Z,3.15
2022-10-10T23:05:13.172Z,2.80
2022-10-10T23:07:41.017Z,2.72
2022-10-10T23:10:10.229Z,2.78
2022-10-10T23:12:38.569Z,2.80
2022-10-10T23:15:08.809Z,2.35
2022-10-10T23:17:39.048Z,2.40
2022-10-10T23:20:08.364Z,2.10
2022-10-10T23:22:36.460Z,1.90
2022-10-10T23:25:04.754Z,2.42
2022-10-10T23:27:32.603Z,2.05
2022-10-10T23:30:00.484Z,2.17
2022-10-10T23:32:30.397Z,1.52
2022-10-10T23:34:58.576Z,2.05
2022-10-10T23:37:27.951Z,2.00
2022-10-10T23:39:55.844Z,1.60
2022-10-10T23:42:23.704Z,1.65
2022-10-10T23:44:51.588Z,2.20
2022-10-10T23:47:19.404Z,1.67
2022-10-10T23:49:48.568Z,1.65
2022-10-10T23:52:16.584Z,1.27
2022-10-10T23:54:44.420Z,1.48
2022-10-10T23:57:12.243Z,1.40
2022-10-10T23:59:40.139Z,1.58
